createdAt,value
2023-01-13T00:00:16.262Z,100507.53
2023-01-13T00:02:43.323Z,100503.46
2023-01-13T00:05:10.801Z,100504.58
2023-01-13T00:07:40.367Z,100510.85
2023-01-13T00:10:11.225Z,100511.50
2023-01-13T00:12:42.006Z,100513.58
2023-01-13T00:15:09.804Z,100517.46
2023-01-13T00:17:36.703Z,100517.20
2023-01-13T00:20:03.793Z,100513.16
2023-01-13T00:22:34.067Z,100514.73
2023-01-13T00:25:01.818Z,100515.52
2023-01-13T00:27:29.167Z,100518.21
2023-01-13T00:29:56.081Z,100517.27
2023-01-13T00:32:22.983Z,100518.77
2023-01-13T00:34:49.845Z,100522.99
2023-01-13T00:37:16.803Z,100524.23
2023-01-13T00:39:43.943Z,100519.61
2023-01-13T00:42:29.522Z,100517.55
2023-01-13T00:44:56.452Z,100517.52
2023-01-13T00:47:26.255Z,100520.55
2023-01-13T00:49:53.174Z,100515.08
2023-01-13T00:52:20.072Z,100516.44
2023-01-13T00:54:47.116Z,100505.20
2023-01-13T00:57:16.369Z,100502.89
2023-01-13T00:59:43.227Z,100497.46
2023-01-13T01:02:10.578Z,100495.62
2023-01-13T01:04:37.517Z,100492.48
2023-01-13T01:07:04.807Z,100494.71
2023-01-13T01:09:34.913Z,100493.02
2023-01-13T01:12:01.892Z,100492.77
2023-01-13T01:14:28.693Z,100494.73
2023-01-13T01:16:55.516Z,100492.63
2023-01-13T01:19:22.459Z,100482.88
2023-01-13T01:21:49.246Z,100480.56
2023-01-13T01:24:16.761Z,100483.28
2023-01-13T01:26:43.709Z,100478.52
2023-01-13T01:29:13.569Z,100472.50
2023-01-13T01:31:40.437Z,100474.46
2023-01-13T01:34:07.334Z,100476.84
2023-01-13T01:36:36.892Z,100470.27
2023-01-13T01:39:03.861Z,100468.80
2023-01-13T01:41:32.352Z,100464.94
2023-01-13T01:44:00.590Z,100466.76
2023-01-13T01:46:43.844Z,100466.15
2023-01-13T01:49:22.493Z,100463.58
2023-01-13T01:51:52.545Z,100461.80
2023-01-13T01:54:26.429Z,100461.12
2023-01-13T01:56:53.312Z,100464.78
2023-01-13T01:59:20.164Z,100461.83
2023-01-13T02:01:47.846Z,100458.85
2023-01-13T02:04:23.942Z,100455.82
2023-01-13T02:06:51.007Z,100454.85
2023-01-13T02:09:17.874Z,100455.82
2023-01-13T02:12:03.450Z,100453.96
2023-01-13T02:14:30.337Z,100447.70
2023-01-13T02:17:15.184Z,100445.80
2023-01-13T02:20:33.072Z,100444.80
2023-01-13T02:23:56.322Z,100448.36
2023-01-13T02:26:50.983Z,100449.85
2023-01-13T02:30:10.120Z,100448.19
2023-01-13T02:32:51.336Z,100441.05
2023-01-13T02:35:25.481Z,100436.63
2023-01-13T02:37:52.417Z,100437.11
2023-01-13T02:40:26.834Z,100436.92
2023-01-13T02:43:21.103Z,100436.41
2023-01-13T02:46:00.256Z,100431.57
2023-01-13T02:48:27.706Z,100431.31
2023-01-13T02:51:00.241Z,100429.77
2023-01-13T02:53:35.850Z,100432.70
2023-01-13T02:56:03.693Z,100431.48
2023-01-13T02:58:30.554Z,100433.59
2023-01-13T03:00:57.482Z,100426.94
2023-01-13T03:03:24.589Z,100425.46
2023-01-13T03:05:54.192Z,100425.21
2023-01-13T03:08:23.392Z,100427.13
2023-01-13T03:11:11.805Z,100427.84
2023-01-13T03:14:07.044Z,100424.70
2023-01-13T03:17:09.263Z,100423.85
2023-01-13T03:20:03.144Z,100425.58
2023-01-13T03:22:40.442Z,100429.77
2023-01-13T03:25:11.830Z,100425.91
2023-01-13T03:27:52.574Z,100424.50
2023-01-13T03:30:21.528Z,100420.80
2023-01-13T03:33:03.017Z,100422.73
2023-01-13T03:35:38.438Z,100423.10
2023-01-13T03:38:09.123Z,100422.63
2023-01-13T03:40:39.535Z,100420.97
2023-01-13T03:43:28.248Z,100423.03
2023-01-13T03:45:57.509Z,100415.74
2023-01-13T03:48:26.419Z,100416.45
2023-01-13T03:50:55.272Z,100421.99
2023-01-13T03:53:53.576Z,100422.73
2023-01-13T03:56:28.577Z,100420.77
2023-01-13T03:58:55.386Z,100421.98
2023-01-13T04:01:25.138Z,100424.23
2023-01-13T04:04:15.595Z,100423.62
2023-01-13T04:06:46.055Z,100421.66
2023-01-13T04:09:15.925Z,100423.33
2023-01-13T04:11:49.567Z,100420.78
2023-01-13T04:14:16.250Z,100423.61
2023-01-13T04:16:43.018Z,100419.89
2023-01-13T04:19:09.754Z,100423.27
2023-01-13T04:21:36.549Z,100421.72
2023-01-13T04:24:03.397Z,100425.16
2023-01-13T04:26:30.232Z,100417.66
2023-01-13T04:28:57.030Z,100413.44
2023-01-13T04:31:24.051Z,100419.58
2023-01-13T04:33:50.945Z,100418.30
2023-01-13T04:36:19.662Z,100416.96
2023-01-13T04:38:46.569Z,100421.71
2023-01-13T04:41:13.468Z,100422.88
2023-01-13T04:43:40.300Z,100423.06
2023-01-13T04:46:07.318Z,100419.65
2023-01-13T04:48:34.231Z,100420.46
2023-01-13T04:51:01.052Z,100418.50
2023-01-13T04:53:27.961Z,100417.71
2023-01-13T04:55:55.179Z,100419.10
2023-01-13T04:58:22.173Z,100420.67
2023-01-13T05:00:50.719Z,100421.11
2023-01-13T05:03:18.818Z,100423.82
2023-01-13T05:05:45.647Z,100426.94
2023-01-13T05:08:12.907Z,100426.28
2023-01-13T05:10:39.773Z,100428.88
2023-01-13T05:13:25.219Z,100429.77
2023-01-13T05:16:13.287Z,100432.54
2023-01-13T05:18:40.159Z,100436.05
2023-01-13T05:21:27.019Z,100438.60
2023-01-13T05:24:12.834Z,100436.48
2023-01-13T05:26:39.671Z,100435.36
2023-01-13T05:29:07.478Z,100432.39
2023-01-13T05:31:34.354Z,100435.20
2023-01-13T05:34:01.217Z,100432.58
2023-01-13T05:36:28.149Z,100428.30
2023-01-13T05:38:54.917Z,100436.70
2023-01-13T05:41:40.454Z,100434.82
2023-01-13T05:44:07.253Z,100431.16
2023-01-13T05:46:34.393Z,100433.09
2023-01-13T05:49:01.817Z,100433.48
2023-01-13T05:51:28.653Z,100436.77
2023-01-13T05:53:55.688Z,100442.54
2023-01-13T05:56:22.535Z,100449.95
2023-01-13T05:58:49.991Z,100448.89
2023-01-13T06:01:16.953Z,100447.50
2023-01-13T06:03:43.759Z,100448.20
2023-01-13T06:06:10.536Z,100446.98
2023-01-13T06:08:39.604Z,100453.63
2023-01-13T06:11:06.750Z,100451.36
2023-01-13T06:13:33.595Z,100448.60
2023-01-13T06:16:00.503Z,100448.55
2023-01-13T06:18:27.945Z,100450.00
2023-01-13T06:20:54.919Z,100451.75
2023-01-13T06:23:21.695Z,100448.46
2023-01-13T06:26:17.425Z,100448.87
2023-01-13T06:28:44.199Z,100446.15
2023-01-13T06:31:11.076Z,100451.39
2023-01-13T06:33:40.898Z,100453.10
2023-01-13T06:36:12.308Z,100454.88
2023-01-13T06:38:40.732Z,100452.20
2023-01-13T06:41:07.793Z,100450.36
2023-01-13T06:43:35.169Z,100448.36
2023-01-13T06:46:02.536Z,100449.30
2023-01-13T06:48:33.119Z,100440.38
2023-01-13T06:51:00.146Z,100442.80
2023-01-13T06:53:27.028Z,100447.30
2023-01-13T06:55:53.786Z,100449.23
2023-01-13T06:58:20.692Z,100449.52
2023-01-13T07:00:51.398Z,100448.41
2023-01-13T07:03:18.968Z,100445.02
2023-01-13T07:05:51.827Z,100443.27
2023-01-13T07:08:18.668Z,100446.22
2023-01-13T07:10:45.516Z,100453.80
2023-01-13T07:13:31.030Z,100453.28
2023-01-13T07:16:01.924Z,100453.47
2023-01-13T07:18:32.443Z,100452.63
2023-01-13T07:21:01.367Z,100452.84
2023-01-13T07:23:30.469Z,100455.48
2023-01-13T07:25:58.369Z,100462.23
2023-01-13T07:28:30.047Z,100465.33
2023-01-13T07:30:57.985Z,100467.35
2023-01-13T07:35:06.145Z,100461.58
2023-01-13T07:37:34.263Z,100461.00
2023-01-13T07:40:02.889Z,100462.30
2023-01-13T07:42:48.777Z,100461.54
2023-01-13T07:45:16.175Z,100460.66
2023-01-13T07:47:43.522Z,100469.06
2023-01-13T07:50:11.530Z,100466.59
2023-01-13T07:52:40.067Z,100465.20
2023-01-13T07:55:08.301Z,100465.29
2023-01-13T07:57:36.601Z,100464.67
2023-01-13T08:00:05.287Z,100464.41
2023-01-13T08:02:32.186Z,100467.77
2023-01-13T08:04:59.100Z,100463.39
2023-01-13T08:07:26.371Z,100463.73
2023-01-13T08:09:53.787Z,100460.27
2023-01-13T08:12:39.680Z,100455.92
2023-01-13T08:15:19.373Z,100455.27
2023-01-13T08:17:46.756Z,100456.05
2023-01-13T08:20:14.146Z,100457.05
2023-01-13T08:22:41.639Z,100450.92
2023-01-13T08:29:40.717Z,100449.36
2023-01-13T08:32:16.464Z,100452.43
2023-01-13T08:35:35.688Z,100454.13
2023-01-13T08:38:04.895Z,100453.30
2023-01-13T08:40:32.454Z,100449.56
2023-01-13T08:43:03.135Z,100443.95
2023-01-13T08:45:31.701Z,100442.35
2023-01-13T08:47:59.601Z,100437.23
2023-01-13T08:50:43.045Z,100439.48
2023-01-13T08:53:13.240Z,100439.52
2023-01-13T08:55:40.863Z,100439.07
2023-01-13T08:58:15.395Z,100439.65
2023-01-13T09:00:44.482Z,100436.41
2023-01-13T09:06:11.992Z,100437.44
2023-01-13T09:08:48.322Z,100426.55
2023-01-13T09:11:37.961Z,100435.63
2023-01-13T09:14:05.005Z,100432.05
2023-01-13T09:16:32.012Z,100428.48
2023-01-13T09:19:01.598Z,100422.61
2023-01-13T09:24:10.073Z,100424.74
2023-01-13T09:26:37.749Z,100422.77
2023-01-13T09:29:05.468Z,100423.27
2023-01-13T09:35:01.428Z,100428.66
2023-01-13T09:37:49.540Z,100428.05
2023-01-13T09:43:55.659Z,100418.64
2023-01-13T10:09:29.839Z,100391.14
2023-01-13T10:12:18.329Z,100388.66
2023-01-13T10:14:55.846Z,100383.55
2023-01-13T10:17:56.135Z,100383.19
2023-01-13T10:20:41.267Z,100384.64
2023-01-13T10:26:39.762Z,100389.00
2023-01-13T10:29:28.660Z,100390.02
2023-01-13T10:31:59.847Z,100387.16
2023-01-13T10:34:27.643Z,100382.50
2023-01-13T10:37:08.798Z,100379.31
2023-01-13T10:39:56.166Z,100377.10
2023-01-13T10:42:24.234Z,100374.99
2023-01-13T10:45:05.229Z,100371.67
2023-01-13T10:47:37.302Z,100366.80
2023-01-13T11:07:12.664Z,100364.79
2023-01-13T11:09:40.453Z,100364.80
2023-01-13T11:12:31.682Z,100359.45
2023-01-13T11:15:03.816Z,100359.29
2023-01-13T11:17:45.640Z,100363.32
2023-01-13T11:20:12.783Z,100364.33
2023-01-13T11:22:44.866Z,100361.67
2023-01-13T11:25:24.552Z,100361.34
2023-01-13T11:28:07.280Z,100362.89
2023-01-13T11:31:13.253Z,100362.98
2023-01-13T11:34:04.481Z,100361.47
2023-01-13T11:36:39.342Z,100360.98
2023-01-13T11:39:27.637Z,100357.13
2023-01-13T11:42:21.277Z,100350.66
2023-01-13T11:44:54.712Z,100350.56
2023-01-13T11:47:23.732Z,100348.92
2023-01-13T11:49:54.927Z,100352.98
2023-01-13T11:52:48.042Z,100350.91
2023-01-13T11:55:28.489Z,100352.77
2023-01-13T11:58:18.509Z,100361.80
2023-01-13T12:01:25.833Z,100355.34
2023-01-13T12:04:05.953Z,100355.65
2023-01-13T12:06:40.295Z,100359.66
2023-01-13T12:09:25.893Z,100363.66
2023-01-13T12:12:20.252Z,100363.28
2023-01-13T12:15:15.343Z,100367.02
2023-01-13T12:18:21.410Z,100365.05
2023-01-13T12:21:09.923Z,100361.29
2023-01-13T12:23:45.657Z,100361.41
2023-01-13T12:26:15.474Z,100360.21
2023-01-13T12:29:15.425Z,100357.95
2023-01-13T12:31:42.257Z,100369.41
2023-01-13T12:34:33.933Z,100361.66
2023-01-13T12:37:16.361Z,100362.71
2023-01-13T12:40:04.987Z,100356.86
2023-01-13T12:43:19.538Z,100358.43
2023-01-13T12:45:47.029Z,100352.75
2023-01-13T12:48:54.956Z,100352.58
2023-01-13T12:52:08.399Z,100353.73
2023-01-13T12:54:41.787Z,100349.08
2023-01-13T12:57:21.448Z,100355.20
2023-01-13T13:00:04.066Z,100357.08
2023-01-13T13:03:12.865Z,100356.98
2023-01-13T13:05:48.009Z,100354.02
2023-01-13T13:08:19.247Z,100359.43
2023-01-13T13:11:05.565Z,100354.55
2023-01-13T13:13:47.391Z,100359.80
2023-01-13T13:16:26.799Z,100363.45
2023-01-13T13:19:25.948Z,100370.08
2023-01-13T13:22:14.116Z,100371.06
2023-01-13T13:24:43.208Z,100377.45
2023-01-13T13:27:28.852Z,100374.65
2023-01-13T13:30:02.198Z,100366.50
2023-01-13T13:32:47.469Z,100365.84
2023-01-13T13:35:17.455Z,100369.66
2023-01-13T13:38:21.768Z,100371.85
2023-01-13T13:41:07.294Z,100369.55
2023-01-13T13:44:04.349Z,100367.83
2023-01-13T13:46:46.902Z,100362.67
2023-01-13T13:49:24.558Z,100363.38
2023-01-13T13:52:01.216Z,100359.00
2023-01-13T13:54:28.532Z,100366.31
2023-01-13T13:56:58.621Z,100366.33
2023-01-13T13:59:28.335Z,100363.68
2023-01-13T14:02:01.916Z,100365.14
2023-01-13T14:04:38.318Z,100364.61
2023-01-13T14:07:18.597Z,100368.56
2023-01-13T14:09:47.283Z,100367.84
2023-01-13T14:12:24.445Z,100363.41
2023-01-13T14:15:05.280Z,100360.02
2023-01-13T14:21:22.843Z,100357.57
2023-01-13T14:27:22.659Z,100358.26
2023-01-13T14:32:44.959Z,100360.85
2023-01-13T14:35:31.627Z,100353.18
2023-01-13T14:51:43.679Z,100353.08
2023-01-13T14:54:53.603Z,100351.11
2023-01-13T14:57:29.704Z,100345.45
2023-01-13T15:00:02.454Z,100351.48
2023-01-13T15:02:44.039Z,100347.58
2023-01-13T15:05:38.379Z,100336.73
2023-01-13T15:08:21.424Z,100345.67
2023-01-13T15:12:15.255Z,100344.94
2023-01-13T15:24:16.979Z,100334.48
2023-01-13T15:26:57.054Z,100329.93
2023-01-13T15:29:30.212Z,100332.09
2023-01-13T15:32:01.882Z,100335.50
2023-01-13T15:34:36.823Z,100340.00
2023-01-13T15:37:21.690Z,100337.63
2023-01-13T15:39:58.349Z,100332.79
2023-01-13T15:42:48.631Z,100338.52
2023-01-13T15:45:42.435Z,100334.69
2023-01-13T15:48:16.245Z,100344.98
2023-01-13T15:50:50.249Z,100342.10
2023-01-13T15:53:27.756Z,100346.33
2023-01-13T15:56:03.943Z,100337.77
2023-01-13T15:58:34.104Z,100338.11
2023-01-13T16:01:08.170Z,100335.77
2023-01-13T16:03:43.705Z,100341.50
2023-01-13T16:06:20.438Z,100341.33
2023-01-13T16:08:57.058Z,100338.85
2023-01-13T16:11:25.905Z,100341.08
2023-01-13T16:14:02.869Z,100338.79
2023-01-13T16:16:35.529Z,100336.48
2023-01-13T16:19:08.857Z,100328.91
2023-01-13T16:21:41.012Z,100333.02
2023-01-13T16:24:11.226Z,100331.51
2023-01-13T16:26:39.916Z,100331.95
2023-01-13T16:29:13.077Z,100338.77
2023-01-13T16:31:47.806Z,100338.23
2023-01-13T16:34:20.079Z,100342.19
2023-01-13T16:36:47.250Z,100333.53
2023-01-13T16:39:21.479Z,100341.43
2023-01-13T16:41:53.141Z,100337.71
2023-01-13T16:44:22.106Z,100330.54
2023-01-13T16:46:52.554Z,100329.27
2023-01-13T16:49:20.437Z,100331.46
2023-01-13T16:51:49.842Z,100332.95
2023-01-13T16:54:18.230Z,100332.77
2023-01-13T16:56:45.355Z,100331.95
2023-01-13T16:59:17.187Z,100327.59
2023-01-13T17:01:45.074Z,100340.77
2023-01-13T17:04:20.021Z,100337.55
2023-01-13T17:07:19.488Z,100343.89
2023-01-13T17:09:46.485Z,100343.52
2023-01-13T17:12:13.403Z,100335.53
2023-01-13T17:14:40.359Z,100328.33
2023-01-13T17:17:10.700Z,100325.39
2023-01-13T17:19:40.314Z,100331.68
2023-01-13T17:22:07.362Z,100337.24
2023-01-13T17:24:35.380Z,100338.48
2023-01-13T17:27:03.291Z,100344.16
2023-01-13T17:29:30.182Z,100339.27
2023-01-13T17:31:57.484Z,100346.80
2023-01-13T17:34:24.369Z,100346.82
2023-01-13T17:36:51.280Z,100340.16
2023-01-13T17:39:20.138Z,100349.69
2023-01-13T17:41:47.069Z,100340.15
2023-01-13T17:44:15.202Z,100345.35
2023-01-13T17:46:42.754Z,100344.11
2023-01-13T17:49:12.136Z,100341.02
2023-01-13T17:51:38.912Z,100351.20
2023-01-13T17:54:06.000Z,100351.84
2023-01-13T17:56:32.859Z,100342.77
2023-01-13T17:58:59.743Z,100339.77
2023-01-13T18:01:30.794Z,100338.15
2023-01-13T18:03:57.903Z,100334.45
2023-01-13T18:06:24.789Z,100329.03
2023-01-13T18:08:51.820Z,100324.19
2023-01-13T18:11:19.893Z,100328.20
2023-01-13T18:13:52.102Z,100316.57
2023-01-13T18:16:19.381Z,100314.85
2023-01-13T18:18:48.214Z,100314.97
2023-01-13T18:21:41.767Z,100313.37
2023-01-13T18:24:35.109Z,100313.23
2023-01-13T18:27:22.709Z,100312.02
2023-01-13T18:29:57.555Z,100306.72
2023-01-13T18:32:26.548Z,100308.16
2023-01-13T18:35:04.781Z,100303.52
2023-01-13T18:37:36.054Z,100303.53
2023-01-13T18:40:04.029Z,100306.83
2023-01-13T18:42:49.578Z,100304.67
2023-01-13T18:45:18.893Z,100300.93
2023-01-13T18:47:45.700Z,100305.05
2023-01-13T18:50:13.763Z,100304.29
2023-01-13T18:52:41.420Z,100304.05
2023-01-13T18:55:08.530Z,100311.09
2023-01-13T18:57:40.166Z,100307.04
2023-01-13T19:00:12.821Z,100312.34
2023-01-13T19:02:39.806Z,100316.01
2023-01-13T19:05:06.819Z,100317.99
2023-01-13T19:07:35.710Z,100319.38
2023-01-13T19:10:04.506Z,100322.23
2023-01-13T19:12:31.482Z,100322.52
2023-01-13T19:14:58.659Z,100329.94
2023-01-13T19:17:27.224Z,100331.26
2023-01-13T19:19:55.239Z,100329.78
2023-01-13T19:22:30.529Z,100336.36
2023-01-13T19:24:57.878Z,100332.14
2023-01-13T19:27:25.662Z,100334.99
2023-01-13T19:29:53.788Z,100338.48
2023-01-13T19:32:21.911Z,100334.34
2023-01-13T19:34:51.069Z,100333.95
2023-01-13T19:37:19.027Z,100331.02
2023-01-13T19:39:45.945Z,100337.80
2023-01-13T19:42:31.532Z,100341.48
2023-01-13T19:45:17.473Z,100335.72
2023-01-13T19:47:45.817Z,100341.34
2023-01-13T19:53:16.475Z,100329.39
2023-01-13T19:55:48.707Z,100332.67
2023-01-13T19:58:18.210Z,100327.39
2023-01-13T20:00:48.541Z,100323.50
2023-01-13T20:03:16.498Z,100319.33
2023-01-13T20:05:43.687Z,100321.35
2023-01-13T20:08:10.700Z,100318.84
2023-01-13T20:10:38.428Z,100323.10
2023-01-13T20:13:05.972Z,100324.10
2023-01-13T20:15:32.980Z,100326.52
2023-01-13T20:18:00.224Z,100327.69
2023-01-13T20:20:26.998Z,100330.91
2023-01-13T20:22:53.624Z,100331.48
2023-01-13T20:25:20.782Z,100333.80
2023-01-13T20:27:47.784Z,100329.48
2023-01-13T20:30:15.514Z,100327.38
2023-01-13T20:32:42.765Z,100328.34
2023-01-13T20:35:09.725Z,100337.97
2023-01-13T20:37:41.708Z,100337.40
2023-01-13T20:40:10.255Z,100334.28
2023-01-13T20:42:56.028Z,100334.09
2023-01-13T20:45:25.574Z,100332.92
2023-01-13T20:47:53.385Z,100335.70
2023-01-13T20:50:20.167Z,100334.34
2023-01-13T20:52:52.189Z,100338.63
2023-01-13T20:55:19.969Z,100335.95
2023-01-13T20:57:50.806Z,100340.43
2023-01-13T21:00:19.934Z,100337.05
2023-01-13T21:02:47.225Z,100339.15
2023-01-13T21:05:14.100Z,100342.55
2023-01-13T21:07:44.013Z,100351.80
2023-01-13T21:10:11.891Z,100347.74
2023-01-13T21:12:57.767Z,100339.40
2023-01-13T21:15:27.986Z,100336.84
2023-01-13T21:18:13.522Z,100343.25
2023-01-13T21:20:40.335Z,100338.65
2023-01-13T21:23:07.400Z,100338.10
2023-01-13T21:25:36.728Z,100334.05
2023-01-13T21:28:09.788Z,100337.68
2023-01-13T21:30:38.056Z,100323.21
2023-01-13T21:33:05.797Z,100325.20
2023-01-13T21:35:33.167Z,100325.73
2023-01-13T21:37:59.917Z,100322.20
2023-01-13T21:40:27.853Z,100320.19
2023-01-13T21:43:13.194Z,100322.50
2023-01-13T21:46:00.514Z,100323.13
2023-01-13T21:48:27.721Z,100321.91
2023-01-13T21:50:59.087Z,100320.47
2023-01-13T21:53:26.009Z,100333.55
2023-01-13T21:55:53.296Z,100337.37
2023-01-13T21:58:20.287Z,100340.10
2023-01-13T22:00:49.738Z,100340.24
2023-01-13T22:03:18.066Z,100343.02
2023-01-13T22:05:45.807Z,100341.17
2023-01-13T22:08:12.998Z,100344.98
2023-01-13T22:10:56.631Z,100348.86
2023-01-13T22:13:47.874Z,100339.61
2023-01-13T22:16:15.091Z,100341.86
2023-01-13T22:18:41.766Z,100335.83
2023-01-13T22:21:08.322Z,100331.63
2023-01-13T22:23:35.137Z,100332.60
2023-01-13T22:26:02.617Z,100330.19
2023-01-13T22:28:49.977Z,100334.20
2023-01-13T22:31:18.748Z,100330.38
2023-01-13T22:33:47.211Z,100326.66
2023-01-13T22:36:14.593Z,100321.71
2023-01-13T22:38:42.017Z,100326.36
2023-01-13T22:41:08.946Z,100322.39
2023-01-13T22:43:36.613Z,100319.40
2023-01-13T22:46:11.155Z,100317.91
2023-01-13T22:48:40.697Z,100317.98
2023-01-13T22:51:09.732Z,100317.88
2023-01-13T22:53:37.380Z,100313.67
2023-01-13T22:56:06.160Z,100312.67
2023-01-13T22:58:33.735Z,100311.39
2023-01-13T23:01:08.502Z,100316.59
2023-01-13T23:03:35.151Z,100319.21
2023-01-13T23:06:02.091Z,100314.83
2023-01-13T23:08:30.035Z,100310.11
2023-01-13T23:11:04.777Z,100309.58
2023-01-13T23:13:31.905Z,100316.77
2023-01-13T23:16:03.340Z,100316.12
2023-01-13T23:18:31.157Z,100315.95
2023-01-13T23:21:07.504Z,100317.39
2023-01-13T23:23:35.049Z,100310.67
2023-01-13T23:26:02.884Z,100302.50
2023-01-13T23:28:29.705Z,100305.27
2023-01-13T23:30:56.322Z,100303.42
2023-01-13T23:33:23.301Z,100304.04
2023-01-13T23:36:00.312Z,100298.64
2023-01-13T23:38:27.523Z,100297.73
2023-01-13T23:40:54.189Z,100302.58
2023-01-13T23:43:21.288Z,100303.27
2023-01-13T23:45:48.193Z,100294.44
2023-01-13T23:48:14.769Z,100293.75
2023-01-13T23:50:41.389Z,100290.67
2023-01-13T23:53:08.109Z,100287.48
2023-01-13T23:55:34.940Z,100283.75
2023-01-13T23:58:02.059Z,100283.88
